Time,TemperatureF,DewpointF,PressureIn,WindDirection,WindDirectionDegrees,WindSpeedMPH,WindSpeedGustMPH,Humidity,HourlyPrecipIn,Conditions,Clouds,dailyrainin,SoftwareType,DateUTC
2013-04-10 00:03:00,73.0,44.4,30.15,West,266,4.0,6.7,36,0.00,,,-99.99,FreeWX 2.05,2013-04-10 04:03:00,
2013-04-10 00:13:00,72.9,44.4,30.15,WSW,258,3.0,6.3,36,0.00,,,-99.99,FreeWX 2.05,2013-04-10 04:13:00,
2013-04-10 00:23:00,72.3,44.6,30.12,WSW,258,4.0,6.7,37,0.00,,,-99.99,FreeWX 2.05,2013-04-10 04:23:00,
2013-04-10 00:33:00,72.1,45.1,30.12,West,259,3.0,6.3,38,0.00,,,-99.99,FreeWX 2.05,2013-04-10 04:33:00,
2013-04-10 00:43:00,72.0,46.2,30.12,WSW,251,2.0,5.4,40,0.00,,,-99.99,FreeWX 2.05,2013-04-10 04:43:00,
2013-04-10 00:53:00,71.8,46.8,30.12,West,263,2.0,4.9,41,0.00,,,-99.99,FreeWX 2.05,2013-04-10 04:53:00,
2013-04-10 01:03:00,71.6,46.6,30.12,West,267,2.0,4.9,41,0.00,,,-99.99,FreeWX 2.05,2013-04-10 05:03:00,
2013-04-10 01:13:00,71.4,47.1,30.12,WSW,255,1.0,4.5,42,0.00,,,-99.99,FreeWX 2.05,2013-04-10 05:13:00,
2013-04-10 01:23:00,71.1,46.8,30.12,West,276,1.0,4.9,42,0.00,,,-99.99,FreeWX 2.05,2013-04-10 05:23:00,
2013-04-10 01:33:00,70.9,46.6,30.12,North,-999,0.0,4.5,42,0.00,,,-99.99,FreeWX 2.05,2013-04-10 05:33:00,
2013-04-10 01:43:00,70.7,47.1,30.12,North,-999,0.0,4.0,43,0.00,,,-99.99,FreeWX 2.05,2013-04-10 05:43:00,
2013-04-10 01:53:00,70.5,46.9,30.12,North,-999,0.0,4.9,43,0.00,,,-99.99,FreeWX 2.05,2013-04-10 05:53:00,
2013-04-10 02:03:00,70.3,47.3,30.12,North,-999,0.0,4.0,44,0.00,,,-99.99,FreeWX 2.05,2013-04-10 06:03:00,
2013-04-10 02:14:00,70.2,47.8,30.12,North,-999,0.0,4.5,45,0.00,,,-99.99,FreeWX 2.05,2013-04-10 06:14:00,
2013-04-10 02:24:00,70.0,47.7,30.12,North,-999,0.0,4.0,45,0.00,,,-99.99,FreeWX 2.05,2013-04-10 06:24:00,
2013-04-10 02:34:00,69.8,47.5,30.12,North,-999,0.0,3.1,45,0.00,,,-99.99,FreeWX 2.05,2013-04-10 06:34:00,
2013-04-10 02:44:00,69.6,47.8,30.12,North,-999,0.0,3.1,46,0.00,,,-99.99,FreeWX 2.05,2013-04-10 06:44:00,
2013-04-10 02:54:00,69.6,48.6,30.12,North,-999,0.0,3.1,47,0.00,,,-99.99,FreeWX 2.05,2013-04-10 06:54:00,
2013-04-10 03:04:00,69.4,48.9,30.09,North,-999,0.0,2.7,48,0.00,,,-99.99,FreeWX 2.05,2013-04-10 07:04:00,
2013-04-10 03:14:00,69.3,48.7,30.09,North,-999,0.0,0.0,48,0.00,,,-99.99,FreeWX 2.05,2013-04-10 07:14:00,
2013-04-10 03:24:00,69.1,49.1,30.09,North,-999,0.0,0.0,49,0.00,,,-99.99,FreeWX 2.05,2013-04-10 07:24:00,
2013-04-10 03:34:00,69.1,49.6,30.09,North,-999,0.0,3.1,50,0.00,,,-99.99,FreeWX 2.05,2013-04-10 07:34:00,
2013-04-10 03:44:00,68.9,50.0,30.09,North,-999,0.0,2.7,51,0.00,,,-99.99,FreeWX 2.05,2013-04-10 07:44:00,
2013-04-10 03:54:00,68.9,51.1,30.09,North,-999,0.0,2.7,53,0.00,,,-99.99,FreeWX 2.05,2013-04-10 07:54:00,
2013-04-10 04:04:00,68.7,51.4,30.09,North,-999,0.0,2.7,54,0.00,,,-99.99,FreeWX 2.05,2013-04-10 08:04:00,
2013-04-10 04:14:00,68.5,51.8,30.09,North,-999,0.0,2.7,55,0.00,,,-99.99,FreeWX 2.05,2013-04-10 08:14:00,
2013-04-10 04:24:00,68.5,52.2,30.09,North,-999,0.0,0.0,56,0.00,,,-99.99,FreeWX 2.05,2013-04-10 08:24:00,
2013-04-10 04:34:00,68.4,52.5,30.09,North,-999,0.0,2.7,57,0.00,,,-99.99,FreeWX 2.05,2013-04-10 08:34:00,
2013-04-10 04:44:00,68.4,53.4,30.09,North,-999,0.0,2.7,59,0.00,,,-99.99,FreeWX 2.05,2013-04-10 08:44:00,
2013-04-10 04:54:00,68.2,53.8,30.09,North,-999,0.0,3.1,60,0.00,,,-99.99,FreeWX 2.05,2013-04-10 08:54:00,
2013-04-10 05:04:00,68.2,55.0,30.09,North,-999,0.0,3.1,63,0.00,,,-99.99,FreeWX 2.05,2013-04-10 09:04:00,
2013-04-10 05:14:00,68.2,55.6,30.09,North,-999,0.0,3.1,64,0.00,,,-99.99,FreeWX 2.05,2013-04-10 09:14:00,
2013-04-10 05:24:00,68.2,56.3,30.09,North,-999,0.0,3.6,66,0.00,,,-99.99,FreeWX 2.05,2013-04-10 09:24:00,
2013-04-10 05:34:00,68.0,56.7,30.06,WSW,257,1.0,4.0,67,0.00,,,-99.99,FreeWX 2.05,2013-04-10 09:34:00,
2013-04-10 05:44:00,68.2,57.6,30.06,North,-999,0.0,3.1,69,0.00,,,-99.99,FreeWX 2.05,2013-04-10 09:44:00,
2013-04-10 05:54:00,68.2,58.1,30.06,North,-999,0.0,3.6,70,0.00,,,-99.99,FreeWX 2.05,2013-04-10 09:54:00,
2013-04-10 06:04:00,68.2,58.1,30.06,West,260,1.0,3.6,70,0.00,,,-99.99,FreeWX 2.05,2013-04-10 10:04:00,
2013-04-10 06:14:00,68.4,58.6,30.06,West,259,1.0,3.6,71,0.00,,,-99.99,FreeWX 2.05,2013-04-10 10:14:00,
2013-04-10 06:24:00,68.2,58.5,30.06,West,263,1.0,4.0,71,0.00,,,-99.99,FreeWX 2.05,2013-04-10 10:24:00,
2013-04-10 06:34:00,68.2,58.8,30.06,West,262,1.0,4.0,72,0.00,,,-99.99,FreeWX 2.05,2013-04-10 10:34:00,
2013-04-10 06:44:00,68.2,59.2,30.06,West,259,1.0,5.4,73,0.00,,,-99.99,FreeWX 2.05,2013-04-10 10:44:00,
2013-04-10 06:54:00,68.2,59.2,30.06,West,259,1.0,4.0,73,0.00,,,-99.99,FreeWX 2.05,2013-04-10 10:54:00,
2013-04-10 07:04:00,68.2,59.5,30.06,WSW,253,1.0,4.5,74,0.00,,,-99.99,FreeWX 2.05,2013-04-10 11:04:00,
2013-04-10 07:14:00,68.2,59.5,30.06,North,-999,0.0,3.6,74,0.00,,,-99.99,FreeWX 2.05,2013-04-10 11:14:00,
2013-04-10 07:24:00,68.0,59.4,30.09,North,-999,0.0,3.1,74,0.00,,,-99.99,FreeWX 2.05,2013-04-10 11:24:00,
2013-04-10 07:34:00,68.2,59.9,30.09,WSW,255,1.0,3.6,75,0.00,,,-99.99,FreeWX 2.05,2013-04-10 11:34:00,
2013-04-10 07:44:00,68.4,60.1,30.09,North,-999,0.0,4.5,75,0.00,,,-99.99,FreeWX 2.05,2013-04-10 11:44:00,
2013-04-10 07:54:00,68.7,60.8,30.09,WSW,254,1.0,4.9,76,0.00,,,-99.99,FreeWX 2.05,2013-04-10 11:54:00,
2013-04-10 08:04:00,69.1,61.2,30.09,West,262,2.0,4.9,76,0.00,,,-99.99,FreeWX 2.05,2013-04-10 12:04:00,
2013-04-10 08:14:00,69.4,61.5,30.09,West,265,2.0,4.9,76,0.00,,,-99.99,FreeWX 2.05,2013-04-10 12:14:00,
2013-04-10 08:24:00,69.8,61.5,30.09,West,264,2.0,4.9,75,0.00,,,-99.99,FreeWX 2.05,2013-04-10 12:24:00,
2013-04-10 08:34:00,70.5,61.9,30.09,West,275,2.0,5.8,74,0.00,,,-99.99,FreeWX 2.05,2013-04-10 12:34:00,
2013-04-10 08:44:00,71.8,61.9,30.09,West,272,2.0,4.5,71,0.00,,,-99.99,FreeWX 2.05,2013-04-10 12:44:00,
2013-04-10 08:54:00,71.4,59.5,30.09,West,263,1.0,4.5,66,0.00,,,-99.99,FreeWX 2.05,2013-04-10 12:54:00,
2013-04-10 09:04:00,71.2,58.5,30.09,West,264,2.0,5.4,64,0.00,,,-99.99,FreeWX 2.05,2013-04-10 13:04:00,
2013-04-10 09:14:00,71.8,59.4,30.09,West,267,1.0,4.5,65,0.00,,,-99.99,FreeWX 2.05,2013-04-10 13:14:00,
2013-04-10 09:24:00,72.1,58.8,30.09,West,259,1.0,4.9,63,0.00,,,-99.99,FreeWX 2.05,2013-04-10 13:24:00,
2013-04-10 09:34:00,72.5,58.6,30.09,West,262,1.0,5.8,62,0.00,,,-99.99,FreeWX 2.05,2013-04-10 13:34:00,
2013-04-10 09:44:00,72.7,58.5,30.09,West,263,2.0,5.8,61,0.00,,,-99.99,FreeWX 2.05,2013-04-10 13:44:00,
2013-04-10 09:54:00,73.4,59.2,30.09,WSW,257,1.0,4.9,61,0.00,,,-99.99,FreeWX 2.05,2013-04-10 13:54:00,
2013-04-10 10:04:00,73.8,58.5,30.09,West,260,2.0,5.4,59,0.00,,,-99.99,FreeWX 2.05,2013-04-10 14:04:00,
2013-04-10 10:14:00,74.1,58.5,30.09,West,263,3.0,5.4,58,0.00,,,-99.99,FreeWX 2.05,2013-04-10 14:14:00,
2013-04-10 10:24:00,74.8,58.1,30.09,West,271,3.0,5.8,56,0.00,,,-99.99,FreeWX 2.05,2013-04-10 14:24:00,
2013-04-10 10:34:00,75.6,58.3,30.09,WSW,257,3.0,4.9,55,0.00,,,-99.99,FreeWX 2.05,2013-04-10 14:34:00,
2013-04-10 10:44:00,75.9,57.6,30.09,West,261,2.0,5.8,53,0.00,,,-99.99,FreeWX 2.05,2013-04-10 14:44:00,
2013-04-10 10:54:00,76.6,57.2,30.09,West,269,3.0,5.4,51,0.00,,,-99.99,FreeWX 2.05,2013-04-10 14:54:00,
2013-04-10 11:04:00,77.2,55.4,30.09,WSW,256,3.0,4.9,47,0.00,,,-99.99,FreeWX 2.05,2013-04-10 15:04:00,
2013-04-10 11:14:00,77.5,54.0,30.09,West,259,3.0,4.9,44,0.00,,,-99.99,FreeWX 2.05,2013-04-10 15:14:00,
2013-04-10 11:24:00,78.1,52.5,30.09,West,266,3.0,5.4,41,0.00,,,-99.99,FreeWX 2.05,2013-04-10 15:24:00,
2013-04-10 11:34:00,78.3,51.3,30.09,West,261,3.0,6.3,39,0.00,,,-99.99,FreeWX 2.05,2013-04-10 15:34:00,
2013-04-10 11:44:00,78.8,50.4,30.09,WSW,250,3.0,5.4,37,0.00,,,-99.99,FreeWX 2.05,2013-04-10 15:44:00,
2013-04-10 11:54:00,79.3,51.4,30.09,WSW,254,3.0,5.8,38,0.00,,,-99.99,FreeWX 2.05,2013-04-10 15:54:00,
2013-04-10 12:04:00,79.9,49.8,30.09,WSW,256,3.0,5.4,35,0.00,,,-99.99,FreeWX 2.05,2013-04-10 16:04:00,
2013-04-10 12:14:00,80.1,48.4,30.09,West,263,3.0,6.3,33,0.00,,,-99.99,FreeWX 2.05,2013-04-10 16:14:00,
2013-04-10 12:24:00,80.2,47.7,30.09,WSW,257,3.0,6.7,32,0.00,,,-99.99,FreeWX 2.05,2013-04-10 16:24:00,
2013-04-10 12:34:00,80.1,47.5,30.09,WSW,254,3.0,5.8,32,0.00,,,-99.99,FreeWX 2.05,2013-04-10 16:34:00,
2013-04-10 12:44:00,80.6,48.0,30.09,West,264,3.0,5.4,32,0.00,,,-99.99,FreeWX 2.05,2013-04-10 16:44:00,
2013-04-10 12:54:00,81.9,48.2,30.06,WSW,256,3.0,5.8,31,0.00,,,-99.99,FreeWX 2.05,2013-04-10 16:54:00,
2013-04-10 13:04:00,82.0,46.6,30.06,West,260,3.0,5.8,29,0.00,,,-99.99,FreeWX 2.05,2013-04-10 17:04:00,
2013-04-10 13:14:00,82.4,46.9,30.06,WSW,251,3.0,6.9,29,0.00,,,-99.99,FreeWX 2.05,2013-04-10 17:14:00,
2013-04-10 13:24:00,82.0,46.6,30.06,WSW,256,3.0,6.3,29,0.00,,,-99.99,FreeWX 2.05,2013-04-10 17:24:00,
2013-04-10 13:34:00,82.6,46.2,30.06,West,264,4.0,7.4,28,0.00,,,-99.99,FreeWX 2.05,2013-04-10 17:34:00,
2013-04-10 13:44:00,82.9,46.4,30.06,West,259,3.0,5.4,28,0.00,,,-99.99,FreeWX 2.05,2013-04-10 17:44:00,
2013-04-10 13:54:00,83.3,44.8,30.06,West,260,3.0,5.8,26,0.00,,,-99.99,FreeWX 2.05,2013-04-10 17:54:00,
2013-04-10 14:04:00,83.7,43.0,30.06,WSW,257,4.0,8.3,24,0.00,,,-99.99,FreeWX 2.05,2013-04-10 18:04:00,
2013-04-10 14:14:00,83.5,42.8,30.06,WSW,257,3.0,5.4,24,0.00,,,-99.99,FreeWX 2.05,2013-04-10 18:14:00,
2013-04-10 14:24:00,84.2,43.5,30.06,West,267,3.0,5.8,24,0.00,,,-99.99,FreeWX 2.05,2013-04-10 18:24:00,
2013-04-10 14:34:00,85.5,43.3,30.06,West,275,3.0,5.8,23,0.00,,,-99.99,FreeWX 2.05,2013-04-10 18:34:00,
2013-04-10 14:44:00,84.9,43.0,30.06,West,263,3.0,4.9,23,0.00,,,-99.99,FreeWX 2.05,2013-04-10 18:44:00,
2013-04-10 14:54:00,85.3,42.1,30.06,WNW,297,2.0,5.4,22,0.00,,,-99.99,FreeWX 2.05,2013-04-10 18:54:00,
2013-04-10 15:04:00,85.8,42.6,30.06,West,280,2.0,4.5,22,0.00,,,-99.99,FreeWX 2.05,2013-04-10 19:04:00,
2013-04-10 15:14:00,84.6,41.5,30.06,WSW,251,2.0,4.5,22,0.00,,,-99.99,FreeWX 2.05,2013-04-10 19:14:00,
2013-04-10 15:24:00,86.0,42.6,30.03,WSW,255,2.0,4.5,22,0.00,,,-99.99,FreeWX 2.05,2013-04-10 19:24:00,
2013-04-10 15:34:00,86.0,41.5,30.03,West,259,2.0,5.4,21,0.00,,,-99.99,FreeWX 2.05,2013-04-10 19:34:00,
2013-04-10 15:44:00,85.5,41.0,30.03,WSW,242,1.0,4.5,21,0.00,,,-99.99,FreeWX 2.05,2013-04-10 19:44:00,
2013-04-10 15:54:00,86.4,41.7,30.03,WSW,251,2.0,4.9,21,0.00,,,-99.99,FreeWX 2.05,2013-04-10 19:54:00,
2013-04-10 16:04:00,87.1,41.2,30.03,West,261,2.0,4.9,20,0.00,,,-99.99,FreeWX 2.05,2013-04-10 20:04:00,
2013-04-10 16:14:00,88.0,43.2,30.00,SW,216,1.0,7.8,21,0.00,,,-99.99,FreeWX 2.05,2013-04-10 20:14:00,
2013-04-10 16:24:00,88.3,43.3,30.00,ESE,113,3.0,7.8,21,0.00,,,-99.99,FreeWX 2.05,2013-04-10 20:24:00,
2013-04-10 16:34:00,88.2,43.3,30.03,East,97,3.0,8.7,21,0.00,,,-99.99,FreeWX 2.05,2013-04-10 20:34:00,
2013-04-10 16:44:00,87.6,42.8,30.00,ENE,65,5.0,10.1,21,0.00,,,-99.99,FreeWX 2.05,2013-04-10 20:44:00,
2013-04-10 16:54:00,87.1,42.4,30.00,ENE,69,4.0,8.3,21,0.00,,,-99.99,FreeWX 2.05,2013-04-10 20:54:00,
2013-04-10 17:04:00,87.1,42.4,30.00,East,100,3.0,7.8,21,0.00,,,-99.99,FreeWX 2.05,2013-04-10 21:04:00,
2013-04-10 17:14:00,86.0,41.5,30.00,ESE,102,3.0,7.4,21,0.00,,,-99.99,FreeWX 2.05,2013-04-10 21:14:00,
2013-04-10 17:24:00,85.5,42.3,30.00,East,93,3.0,8.7,22,0.00,,,-99.99,FreeWX 2.05,2013-04-10 21:24:00,
2013-04-10 17:34:00,84.6,41.5,30.00,SE,130,3.0,7.8,22,0.00,,,-99.99,FreeWX 2.05,2013-04-10 21:34:00,
2013-04-10 17:44:00,84.2,42.4,30.00,East,94,4.0,7.8,23,0.00,,,-99.99,FreeWX 2.05,2013-04-10 21:44:00,
2013-04-10 17:54:00,83.8,42.1,30.00,ENE,73,4.0,7.4,23,0.00,,,-99.99,FreeWX 2.05,2013-04-10 21:54:00,
2013-04-10 18:04:00,83.5,41.7,30.00,East,89,3.0,8.3,23,0.00,,,-99.99,FreeWX 2.05,2013-04-10 22:04:00,
2013-04-10 18:14:00,83.3,43.7,30.00,East,92,3.0,5.4,25,0.00,,,-99.99,FreeWX 2.05,2013-04-10 22:14:00,
2013-04-10 18:24:00,82.9,43.5,30.00,ENE,72,3.0,6.7,25,0.00,,,-99.99,FreeWX 2.05,2013-04-10 22:24:00,
2013-04-10 18:34:00,82.0,43.7,30.00,ESE,102,2.0,6.3,26,0.00,,,-99.99,FreeWX 2.05,2013-04-10 22:34:00,
2013-04-10 18:44:00,81.0,46.6,30.00,SSE,163,1.0,5.8,30,0.00,,,-99.99,FreeWX 2.05,2013-04-10 22:44:00,
2013-04-10 18:54:00,80.4,46.0,30.00,SSE,154,1.0,5.8,30,0.00,,,-99.99,FreeWX 2.05,2013-04-10 22:54:00,
2013-04-10 19:04:00,79.7,46.4,30.00,North,-999,0.0,5.8,31,0.00,,,-99.99,FreeWX 2.05,2013-04-10 23:04:00,
2013-04-10 19:14:00,79.5,46.2,30.00,SE,141,1.0,6.7,31,0.00,,,-99.99,FreeWX 2.05,2013-04-10 23:14:00,
2013-04-10 19:24:00,78.8,45.5,30.00,North,-999,0.0,4.9,31,0.00,,,-99.99,FreeWX 2.05,2013-04-10 23:24:00,
2013-04-10 19:34:00,78.4,45.3,30.00,North,-999,0.0,3.6,31,0.00,,,-99.99,FreeWX 2.05,2013-04-10 23:34:00,
2013-04-10 19:44:00,78.1,45.0,30.00,North,-999,0.0,3.1,31,0.00,,,-99.99,FreeWX 2.05,2013-04-10 23:44:00,
2013-04-10 19:54:00,77.9,45.7,30.00,North,-999,0.0,0.0,32,0.00,,,-99.99,FreeWX 2.05,2013-04-10 23:54:00,
2013-04-10 20:04:00,77.7,45.5,30.00,North,-999,0.0,2.7,32,0.00,,,-99.99,FreeWX 2.05,2013-04-11 00:04:00,
2013-04-10 20:14:00,77.4,45.1,30.00,North,-999,0.0,0.0,32,0.00,,,-99.99,FreeWX 2.05,2013-04-11 00:14:00,
2013-04-10 20:24:00,77.4,45.1,30.00,North,-999,0.0,2.7,32,0.00,,,-99.99,FreeWX 2.05,2013-04-11 00:24:00,
2013-04-10 20:34:00,77.0,44.8,30.00,North,-999,0.0,0.0,32,0.00,,,-99.99,FreeWX 2.05,2013-04-11 00:34:00,
2013-04-10 20:44:00,77.0,44.8,30.00,North,-999,0.0,0.0,32,0.00,,,-99.99,FreeWX 2.05,2013-04-11 00:44:00,
2013-04-10 20:54:00,77.0,44.8,30.00,North,-999,0.0,0.0,32,0.00,,,-99.99,FreeWX 2.05,2013-04-11 00:54:00,
2013-04-10 21:04:00,77.0,44.8,30.00,North,-999,0.0,0.0,32,0.00,,,-99.99,FreeWX 2.05,2013-04-11 01:04:00,
2013-04-10 21:14:00,77.0,44.8,30.00,North,-999,0.0,0.0,32,0.00,,,-99.99,FreeWX 2.05,2013-04-11 01:14:00,
2013-04-10 21:24:00,77.0,44.8,30.00,North,-999,0.0,0.0,32,0.00,,,-99.99,FreeWX 2.05,2013-04-11 01:24:00,
2013-04-10 21:34:00,76.6,44.6,30.00,North,-999,0.0,0.0,32,0.00,,,-99.99,FreeWX 2.05,2013-04-11 01:34:00,
2013-04-10 21:44:00,76.5,45.1,30.03,North,-999,0.0,0.0,33,0.00,,,-99.99,FreeWX 2.05,2013-04-11 01:44:00,
2013-04-10 21:54:00,76.3,45.0,30.03,North,-999,0.0,0.0,33,0.00,,,-99.99,FreeWX 2.05,2013-04-11 01:54:00,
2013-04-10 22:04:00,76.3,45.0,30.03,North,-999,0.0,0.0,33,0.00,,,-99.99,FreeWX 2.05,2013-04-11 02:04:00,
2013-04-10 22:14:00,76.1,45.0,30.00,North,-999,0.0,0.0,33,0.00,,,-99.99,FreeWX 2.05,2013-04-11 02:14:00,
2013-04-10 22:24:00,76.1,45.7,30.00,North,-999,0.0,3.6,34,0.00,,,-99.99,FreeWX 2.05,2013-04-11 02:24:00,
2013-04-10 22:34:00,76.1,46.4,30.03,North,-999,0.0,0.0,35,0.00,,,-99.99,FreeWX 2.05,2013-04-11 02:34:00,
2013-04-10 22:44:00,75.7,46.9,30.03,North,-999,0.0,0.0,36,0.00,,,-99.99,FreeWX 2.05,2013-04-11 02:44:00,
2013-04-10 22:54:00,75.7,46.9,30.03,North,-999,0.0,0.0,36,0.00,,,-99.99,FreeWX 2.05,2013-04-11 02:54:00,
2013-04-10 23:04:00,75.6,46.8,30.03,North,-999,0.0,0.0,36,0.00,,,-99.99,FreeWX 2.05,2013-04-11 03:04:00,
2013-04-10 23:14:00,75.4,46.6,30.00,North,-999,0.0,0.0,36,0.00,,,-99.99,FreeWX 2.05,2013-04-11 03:14:00,
2013-04-10 23:24:00,75.0,46.9,30.00,North,-999,0.0,0.0,37,0.00,,,-99.99,FreeWX 2.05,2013-04-11 03:24:00,
2013-04-10 23:34:00,74.7,46.6,30.00,North,-999,0.0,0.0,37,0.00,,,-99.99,FreeWX 2.05,2013-04-11 03:34:00,
2013-04-10 23:44:00,74.5,47.1,30.00,North,-999,0.0,0.0,38,0.00,,,-99.99,FreeWX 2.05,2013-04-11 03:44:00,
2013-04-10 23:54:00,74.3,48.4,30.00,North,-999,0.0,0.0,40,0.00,,,-99.99,FreeWX 2.05,2013-04-11 03:54:00,